Time;durP1;ratioP1;P1;durP2;ratioP2;P2;SDS_P1;SDS_P2;PMS_P1;PMS_P2;Temp;Humidity;BMP_temperature;BMP_pressure;BME280_temperature;BME280_humidity;BME280_pressure;Samples;Min_cycle;Max_cycle;Signal;HPM_P1;HPM_P2
2021/11/24 00:01:26;;;;;;;0.40;0.30;;;;;;;7.92;100.00;102006.47;5054506;28;21013;-75
2021/11/24 00:03:53;;;;;;;0.40;0.30;;;;;;;7.95;100.00;102002.47;5054790;28;20805;-76
2021/11/24 00:06:20;;;;;;;0.40;0.30;;;;;;;7.96;100.00;102004.09;5054762;28;20442;-76
2021/11/24 00:08:48;;;;;;;0.40;0.30;;;;;;;7.91;100.00;102007.53;5054685;28;20528;-76
2021/11/24 00:11:15;;;;;;;0.40;0.30;;;;;;;7.94;100.00;102011.63;5054464;28;20474;-76
2021/11/24 00:13:42;;;;;;;0.40;0.30;;;;;;;7.98;100.00;102005.50;5054589;28;20439;-75
2021/11/24 00:16:08;;;;;;;0.40;0.30;;;;;;;8.02;100.00;102008.50;5054334;28;20492;-75
2021/11/24 00:18:36;;;;;;;0.40;0.30;;;;;;;8.00;100.00;101997.13;5054075;28;20520;-75
2021/11/24 00:21:05;;;;;;;0.40;0.30;;;;;;;7.98;100.00;101991.19;5054449;28;20823;-75
2021/11/24 00:23:32;;;;;;;0.60;0.60;;;;;;;7.98;100.00;101991.19;5054399;28;20446;-75
2021/11/24 00:25:58;;;;;;;0.40;0.30;;;;;;;7.91;100.00;101985.13;5054287;28;20438;-75
2021/11/24 00:28:26;;;;;;;0.40;0.30;;;;;;;7.92;100.00;101992.16;5054228;28;20446;-75
2021/11/24 00:30:52;;;;;;;0.40;0.30;;;;;;;7.91;100.00;101991.34;5053547;28;20482;-75
2021/11/24 00:33:19;;;;;;;0.40;0.30;;;;;;;7.91;100.00;101985.94;5053811;28;20500;-75
2021/11/24 00:35:47;;;;;;;0.40;0.30;;;;;;;7.89;100.00;101984.59;5054157;28;20438;-75
2021/11/24 00:38:14;;;;;;;0.40;0.30;;;;;;;7.89;100.00;101989.97;5053991;28;20884;-75
2021/11/24 00:40:42;;;;;;;0.40;0.30;;;;;;;7.88;100.00;101991.03;5054052;28;20439;-75
2021/11/24 00:43:09;;;;;;;0.50;0.50;;;;;;;7.89;100.00;101992.69;5054037;28;20454;-75
2021/11/24 00:45:36;;;;;;;0.40;0.30;;;;;;;7.91;100.00;101990.53;5053949;28;20500;-75
2021/11/24 00:48:03;;;;;;;0.40;0.30;;;;;;;7.90;100.00;101988.91;5053605;28;20461;-75
2021/11/24 00:50:30;;;;;;;0.40;0.30;;;;;;;7.93;100.00;101993.81;5053733;28;20490;-75
2021/11/24 00:52:58;;;;;;;0.40;0.30;;;;;;;7.97;100.00;101989.53;5053860;28;20508;-75
2021/11/24 00:55:24;;;;;;;0.40;0.30;;;;;;;7.97;100.00;101995.78;5053775;28;20450;-75
2021/11/24 00:57:51;;;;;;;0.40;0.30;;;;;;;7.95;100.00;101986.28;5053477;28;20449;-74
2021/11/24 01:00:18;;;;;;;0.40;0.30;;;;;;;7.96;100.00;101990.59;5053612;28;20466;-74
2021/11/24 01:02:46;;;;;;;0.83;0.83;;;;;;;7.97;100.00;101984.97;5053324;28;20507;-74
2021/11/24 01:05:13;;;;;;;0.40;0.30;;;;;;;7.98;100.00;101980.38;5053307;28;21004;-74
2021/11/24 01:07:40;;;;;;;0.50;0.50;;;;;;;7.96;100.00;101987.91;5054155;28;20472;-74
2021/11/24 01:10:11;;;;;;;0.40;0.30;;;;;;;7.98;100.00;101985.78;5073022;28;20481;-74
2021/11/24 01:12:39;;;;;;;0.80;0.70;;;;;;;7.96;100.00;101975.22;5073163;28;20436;-74
2021/11/24 01:15:07;;;;;;;0.40;0.23;;;;;;;7.98;100.00;101975.00;5073141;28;20449;-74
2021/11/24 01:17:33;;;;;;;0.40;0.30;;;;;;;7.97;100.00;101984.13;5073103;28;20939;-74
2021/11/24 01:20:00;;;;;;;0.40;0.30;;;;;;;7.96;100.00;101982.50;5073269;28;20465;-74
2021/11/24 01:22:28;;;;;;;0.60;0.30;;;;;;;7.93;100.00;101977.63;5073028;28;20939;-75
2021/11/24 01:24:55;;;;;;;0.40;0.30;;;;;;;7.93;100.00;101980.31;5073358;28;20453;-75
2021/11/24 01:27:23;;;;;;;0.40;0.40;;;;;;;7.92;100.00;101968.69;5073083;28;20477;-75
2021/11/24 01:29:49;;;;;;;0.40;0.30;;;;;;;7.92;100.00;101973.28;5073170;28;20522;-75
2021/11/24 01:32:16;;;;;;;0.83;0.83;;;;;;;7.86;100.00;101977.78;5073266;28;20896;-75
2021/11/24 01:34:43;;;;;;;2.60;2.50;;;;;;;7.83;100.00;101979.13;5073176;28;20437;-75
2021/11/24 01:37:09;;;;;;;0.40;0.30;;;;;;;7.86;100.00;101977.78;5073175;28;20495;-75
2021/11/24 01:39:38;;;;;;;0.40;0.30;;;;;;;7.82;100.00;101977.47;5072824;28;21073;-75
2021/11/24 01:42:05;;;;;;;0.40;0.40;;;;;;;7.83;100.00;101978.28;5072920;28;20446;-75
2021/11/24 01:44:33;;;;;;;0.40;0.20;;;;;;;7.87;100.00;101978.59;5073186;28;20437;-75
2021/11/24 01:47:02;;;;;;;0.63;0.63;;;;;;;7.86;100.00;101980.50;5072803;28;20465;-75
2021/11/24 01:49:30;;;;;;;0.40;0.20;;;;;;;7.86;100.00;101982.38;5073036;28;20515;-75
2021/11/24 01:51:57;;;;;;;0.40;0.30;;;;;;;7.89;100.00;101980.00;5072618;28;20998;-75
2021/11/24 01:54:25;;;;;;;0.40;0.30;;;;;;;7.90;100.00;101970.03;5073059;28;20438;-75
2021/11/24 01:56:51;;;;;;;0.40;0.30;;;;;;;7.88;100.00;101970.28;5073013;28;20866;-75
2021/11/24 01:59:18;;;;;;;0.40;0.30;;;;;;;7.86;100.00;101958.91;5072919;28;20461;-75
2021/11/24 02:01:47;;;;;;;0.40;0.30;;;;;;;7.86;100.00;101958.09;5072927;28;20499;-75
2021/11/24 02:04:15;;;;;;;0.50;0.30;;;;;;;7.89;100.00;101954.91;5072892;28;20441;-75
2021/11/24 02:06:42;;;;;;;0.40;0.30;;;;;;;7.87;100.00;101957.84;5072936;28;20870;-75
2021/11/24 02:09:10;;;;;;;0.40;0.30;;;;;;;7.83;100.00;101954.00;5072820;28;20465;-75
2021/11/24 02:11:39;;;;;;;0.40;0.30;;;;;;;7.84;100.00;101964.56;5072797;28;20520;-75
2021/11/24 02:14:08;;;;;;;0.60;0.60;;;;;;;7.82;100.00;101958.59;5071961;28;20903;-75
2021/11/24 02:16:40;;;;;;;0.40;0.30;;;;;;;7.83;100.00;101946.75;5072829;28;20437;-75
2021/11/24 02:19:08;;;;;;;0.40;0.30;;;;;;;7.84;100.00;101945.69;5072363;28;20978;-75
2021/11/24 02:21:37;;;;;;;0.40;0.30;;;;;;;7.74;100.00;101945.50;5072763;28;20442;-75
2021/11/24 02:24:05;;;;;;;0.40;0.30;;;;;;;7.72;100.00;101944.97;5072716;28;20526;-76
2021/11/24 02:26:31;;;;;;;0.40;0.30;;;;;;;7.72;100.00;101950.34;5072726;28;20442;-75
2021/11/24 02:28:58;;;;;;;0.40;0.30;;;;;;;7.73;100.00;101945.78;5072578;28;20519;-75
2021/11/24 02:31:26;;;;;;;0.40;0.30;;;;;;;7.72;100.00;101941.44;5072612;28;20512;-75
2021/11/24 02:33:55;;;;;;;0.40;0.30;;;;;;;7.72;100.00;101944.97;5072713;28;20452;-75
2021/11/24 02:36:22;;;;;;;0.40;0.30;;;;;;;7.72;100.00;101950.34;5072596;28;20453;-75
2021/11/24 02:38:50;;;;;;;0.40;0.30;;;;;;;7.74;100.00;101942.81;5072503;28;20465;-75
2021/11/24 02:41:17;;;;;;;4.93;3.03;;;;;;;7.72;100.00;101936.06;5072272;28;20996;-75
2021/11/24 02:43:44;;;;;;;0.40;0.30;;;;;;;7.73;100.00;101938.50;5072512;28;20815;-74
2021/11/24 02:46:11;;;;;;;0.40;0.30;;;;;;;7.78;100.00;101927.78;5072390;28;20441;-74
2021/11/24 02:51:07;;;;;;;0.40;0.30;;;;;;;7.81;100.00;101932.69;5050917;28;20911;-73
2021/11/24 02:53:36;;;;;;;0.40;0.30;;;;;;;7.79;100.00;101921.34;5052134;28;20492;-73
2021/11/24 02:56:05;;;;;;;0.40;0.20;;;;;;;7.82;100.00;101928.09;5054771;28;21005;-72
2021/11/24 02:58:32;;;;;;;0.50;0.50;;;;;;;7.79;100.00;101929.44;5056103;28;20583;-73
2021/11/24 03:01:01;;;;;;;0.40;0.30;;;;;;;7.83;100.00;101927.03;5036051;28;20435;-73
2021/11/24 03:03:28;;;;;;;0.40;0.30;;;;;;;7.81;100.00;101924.59;5036226;28;20794;-73
2021/11/24 03:05:55;;;;;;;0.40;0.30;;;;;;;7.84;100.00;101926.78;5036373;28;20447;-73
2021/11/24 03:08:21;;;;;;;0.40;0.30;;;;;;;7.86;100.00;101931.94;5036314;28;20454;-73
2021/11/24 03:10:48;;;;;;;0.40;0.30;;;;;;;7.87;100.00;101913.84;5035786;28;20560;-73
2021/11/24 03:13:16;;;;;;;0.40;0.30;;;;;;;7.87;100.00;101921.94;5035961;28;20439;-72
2021/11/24 03:15:43;;;;;;;0.40;0.30;;;;;;;7.88;100.00;101910.09;5035536;28;20933;-73
2021/11/24 03:18:09;;;;;;;0.40;0.30;;;;;;;7.83;100.00;101921.63;5035833;28;20443;-74
2021/11/24 03:20:36;;;;;;;0.40;0.30;;;;;;;7.79;100.00;101913.25;5035751;28;20463;-73
2021/11/24 03:23:03;;;;;;;0.40;0.30;;;;;;;7.79;100.00;101907.00;5035663;28;20447;-73
2021/11/24 03:25:30;;;;;;;0.40;0.30;;;;;;;7.76;100.00;101907.53;5035354;28;20529;-73
2021/11/24 03:27:57;;;;;;;0.40;0.30;;;;;;;7.75;100.00;101906.72;5035651;28;20499;-74
2021/11/24 03:30:28;;;;;;;0.40;0.30;;;;;;;7.80;100.00;101916.75;5035546;28;20459;-73
2021/11/24 03:32:56;;;;;;;0.40;0.30;;;;;;;7.79;100.00;101907.84;5035215;28;20431;-73
2021/11/24 03:35:24;;;;;;;0.40;0.30;;;;;;;7.77;100.00;101901.88;5035086;28;20443;-73
2021/11/24 03:37:52;;;;;;;0.40;0.20;;;;;;;7.79;100.00;101907.84;5035452;28;20521;-73
2021/11/24 03:40:20;;;;;;;0.40;0.30;;;;;;;7.80;100.00;101900.56;5035343;28;20926;-74
2021/11/24 03:42:47;;;;;;;0.40;0.27;;;;;;;7.77;100.00;101898.38;5035337;28;20862;-71
2021/11/24 03:45:14;;;;;;;0.40;0.30;;;;;;;7.73;100.00;101895.34;5035368;28;20439;-73
2021/11/24 03:47:43;;;;;;;0.40;0.23;;;;;;;7.78;100.00;101889.19;5035367;28;20514;-73
2021/11/24 03:50:11;;;;;;;1.43;1.33;;;;;;;7.77;100.00;101888.38;5034878;28;20474;-73
2021/11/24 03:52:38;;;;;;;0.40;0.30;;;;;;;7.78;100.00;101889.19;5035199;28;20541;-73
2021/11/24 03:55:06;;;;;;;0.40;0.30;;;;;;;7.79;100.00;101888.13;5035074;28;20850;-74
2021/11/24 03:57:33;;;;;;;0.40;0.27;;;;;;;7.83;100.00;101891.97;5034742;28;20879;-73
2021/11/24 04:00:00;;;;;;;0.40;0.30;;;;;;;7.83;100.00;101887.41;5034588;28;20976;-73
2021/11/24 04:02:27;;;;;;;0.40;0.30;;;;;;;7.82;100.00;101890.34;5034656;28;20991;-74
2021/11/24 04:04:55;;;;;;;0.40;0.30;;;;;;;7.84;100.00;101885.53;5034889;28;20516;-71
2021/11/24 04:07:21;;;;;;;0.40;0.30;;;;;;;7.84;100.00;101886.34;5034569;28;20944;-72
2021/11/24 04:09:49;;;;;;;0.40;0.30;;;;;;;7.86;100.00;101886.06;5034781;28;20463;-71
2021/11/24 04:12:16;;;;;;;0.40;0.30;;;;;;;7.87;100.00;101886.88;5034689;28;20489;-72
2021/11/24 04:14:43;;;;;;;0.50;0.40;;;;;;;7.88;100.00;101888.50;5034795;28;20436;-75
2021/11/24 04:17:09;;;;;;;0.40;0.30;;;;;;;7.85;100.00;101881.75;5034419;28;20941;-76
2021/11/24 04:19:36;;;;;;;0.40;0.30;;;;;;;7.83;100.00;101886.56;5034277;28;20815;-75
2021/11/24 04:22:06;;;;;;;0.40;0.30;;;;;;;7.79;100.00;101885.44;5034589;28;20495;-75
2021/11/24 04:24:33;;;;;;;0.50;0.40;;;;;;;7.81;100.00;101889.53;5034726;28;20481;-75
2021/11/24 04:27:01;;;;;;;0.40;0.30;;;;;;;7.83;100.00;101887.41;5034578;28;20456;-76
2021/11/24 04:29:27;;;;;;;0.40;0.30;;;;;;;7.81;100.00;101889.53;5034348;28;20499;-76
2021/11/24 04:31:54;;;;;;;0.40;0.30;;;;;;;7.82;100.00;101885.75;5034016;28;20831;-75
2021/11/24 04:34:21;;;;;;;0.40;0.30;;;;;;;7.75;100.00;101890.53;5034082;28;20957;-75
2021/11/24 04:36:48;;;;;;;0.40;0.30;;;;;;;7.78;100.00;101891.91;5034404;28;20435;-76
2021/11/24 04:39:16;;;;;;;0.40;0.30;;;;;;;7.81;100.00;101892.22;5033922;28;20462;-76
2021/11/24 04:41:44;;;;;;;0.40;0.30;;;;;;;7.81;100.00;101894.09;5034272;28;20435;-75
2021/11/24 04:44:10;;;;;;;0.40;0.30;;;;;;;7.82;100.00;101893.03;5034130;28;20550;-75
2021/11/24 04:46:37;;;;;;;0.40;0.30;;;;;;;7.79;100.00;101893.53;5034143;28;20452;-75
2021/11/24 04:49:04;;;;;;;0.40;0.30;;;;;;;7.80;100.00;101893.28;5033626;28;21008;-75
2021/11/24 04:51:31;;;;;;;0.40;0.20;;;;;;;7.83;100.00;101895.50;5033999;28;20930;-76
2021/11/24 04:53:58;;;;;;;0.40;0.30;;;;;;;7.84;100.00;101886.34;5033991;28;20497;-75
2021/11/24 04:56:26;;;;;;;0.40;0.30;;;;;;;7.87;100.00;101889.59;5034005;28;20500;-75
2021/11/24 04:58:55;;;;;;;0.40;0.30;;;;;;;7.87;100.00;101884.19;5033861;28;20471;-76
2021/11/24 05:01:22;;;;;;;0.40;0.30;;;;;;;7.83;100.00;101887.41;5033799;28;20439;-75
2021/11/24 05:03:49;;;;;;;0.40;0.30;;;;;;;7.81;100.00;101888.72;5033505;28;20802;-75
2021/11/24 05:06:19;;;;;;;0.40;0.30;;;;;;;7.83;100.00;101887.41;5033851;28;20833;-75
2021/11/24 05:08:46;;;;;;;0.40;0.30;;;;;;;7.89;100.00;101884.78;5033677;28;20431;-75
2021/11/24 05:11:15;;;;;;;0.50;0.43;;;;;;;7.84;100.00;101886.34;5033703;28;20458;-75
2021/11/24 05:13:46;;;;;;;0.40;0.30;;;;;;;7.82;100.00;101891.16;5033819;28;20505;-75
2021/11/24 05:16:13;;;;;;;0.40;0.30;;;;;;;7.82;100.00;101893.84;5033391;28;20427;-74
2021/11/24 05:18:43;;;;;;;0.40;0.30;;;;;;;7.84;100.00;101893.63;5033180;28;20443;-75
2021/11/24 05:21:13;;;;;;;0.40;0.33;;;;;;;7.88;100.00;101888.50;5033584;28;20462;-75
2021/11/24 05:23:42;;;;;;;0.40;0.30;;;;;;;7.86;100.00;101883.38;5033631;28;20431;-76
2021/11/24 05:26:11;;;;;;;0.40;0.27;;;;;;;7.86;100.00;101890.66;5034502;28;20450;-75
2021/11/24 05:28:38;;;;;;;0.40;0.27;;;;;;;7.84;100.00;101880.94;5034056;28;20483;-76
2021/11/24 05:31:08;;;;;;;0.40;0.30;;;;;;;7.82;100.00;101884.94;5034853;28;20493;-76
2021/11/24 05:33:36;;;;;;;0.40;0.30;;;;;;;7.75;100.00;101887.84;5035623;28;20451;-74
2021/11/24 05:36:04;;;;;;;0.40;0.37;;;;;;;7.75;100.00;101887.84;5039027;28;20529;-75
2021/11/24 05:38:32;;;;;;;0.40;0.30;;;;;;;7.75;100.00;101885.13;5034916;28;20546;-75
2021/11/24 05:40:59;;;;;;;0.40;0.30;;;;;;;7.74;100.00;101886.19;5034392;28;20456;-74
2021/11/24 05:43:29;;;;;;;0.40;0.30;;;;;;;7.76;100.00;101886.75;5034466;28;20447;-74
2021/11/24 05:46:13;;;;;;;0.40;0.30;;;;;;;7.78;100.00;101884.63;5033914;28;20467;-75
2021/11/24 05:48:42;;;;;;;0.40;0.30;;;;;;;7.79;100.00;101872.78;5032702;28;20921;-74
2021/11/24 05:51:09;;;;;;;0.40;0.30;;;;;;;7.82;100.00;101872.25;5033059;28;20505;-77
2021/11/24 05:53:36;;;;;;;0.40;0.30;;;;;;;7.80;100.00;101877.09;5033264;28;20564;-75
2021/11/24 05:56:03;;;;;;;0.40;0.30;;;;;;;7.82;100.00;101874.97;5033094;28;20582;-74
2021/11/24 05:58:30;;;;;;;0.40;0.30;;;;;;;7.83;100.00;101871.22;5033089;28;20439;-72
2021/11/24 06:00:57;;;;;;;0.40;0.30;;;;;;;7.88;100.00;101877.72;5032800;28;20451;-74
2021/11/24 06:03:24;;;;;;;0.40;0.30;;;;;;;7.86;100.00;101874.47;5033029;28;20494;-69
2021/11/24 06:05:52;;;;;;;0.40;0.30;;;;;;;7.86;100.00;101872.59;5033073;28;20847;-69
2021/11/24 06:08:19;;;;;;;0.40;0.30;;;;;;;7.84;100.00;101864.75;5033010;28;20486;-71
2021/11/24 06:10:46;;;;;;;0.40;0.30;;;;;;;7.87;100.00;101855.31;5032898;28;20884;-72
2021/11/24 06:13:13;;;;;;;0.40;0.30;;;;;;;7.84;100.00;101862.06;5032922;28;20548;-73
2021/11/24 06:15:40;;;;;;;0.40;0.30;;;;;;;7.86;100.00;101863.69;5033190;28;20513;-73
2021/11/24 06:18:08;;;;;;;0.40;0.30;;;;;;;7.88;100.00;101866.94;5032898;28;20786;-73
2021/11/24 06:20:36;;;;;;;0.40;0.30;;;;;;;7.84;100.00;101859.38;5032761;28;20473;-73
2021/11/24 06:23:04;;;;;;;0.40;0.30;;;;;;;7.88;100.00;101862.38;5032767;28;20461;-74
2021/11/24 06:25:31;;;;;;;0.40;0.30;;;;;;;7.87;100.00;101860.72;5032697;28;20945;-72
2021/11/24 06:27:57;;;;;;;0.40;0.30;;;;;;;7.88;100.00;101867.78;5032838;28;20497;-72
2021/11/24 06:30:24;;;;;;;0.40;0.30;;;;;;;7.91;100.00;101866.44;5034899;28;20516;-73
2021/11/24 06:32:51;;;;;;;0.40;0.30;;;;;;;7.91;100.00;101866.44;5036579;28;20482;-72
2021/11/24 06:35:18;;;;;;;0.40;0.30;;;;;;;7.91;100.00;101863.75;5036208;28;20868;-72
2021/11/24 06:37:46;;;;;;;0.40;0.30;;;;;;;7.95;100.00;101862.16;5035825;28;20952;-72
2021/11/24 06:40:15;;;;;;;0.40;0.30;;;;;;;7.97;100.00;101863.56;5036392;28;20467;-73
2021/11/24 06:42:43;;;;;;;0.40;0.30;;;;;;;8.01;100.00;101863.84;5036216;28;21039;-73
2021/11/24 06:45:10;;;;;;;0.40;0.30;;;;;;;8.01;100.00;101861.16;5036415;28;20443;-72
2021/11/24 06:47:39;;;;;;;0.40;0.30;;;;;;;8.00;100.00;101862.22;5035995;28;20994;-73
2021/11/24 06:50:06;;;;;;;0.40;0.30;;;;;;;8.00;100.00;101860.34;5035836;28;20494;-73
2021/11/24 06:52:33;;;;;;;0.40;0.30;;;;;;;8.00;100.00;101863.03;5035688;28;20479;-72
2021/11/24 06:55:00;;;;;;;0.40;0.30;;;;;;;8.03;100.00;101865.25;5036154;28;20893;-74
2021/11/24 06:57:28;;;;;;;0.40;0.33;;;;;;;8.05;100.00;101873.88;5038191;28;20525;-71
2021/11/24 06:59:55;;;;;;;0.40;0.30;;;;;;;8.01;100.00;101875.50;5036312;28;20471;-72
2021/11/24 07:02:22;;;;;;;0.40;0.30;;;;;;;7.99;100.00;101876.78;5035750;28;20501;-75
2021/11/24 07:04:49;;;;;;;0.40;0.30;;;;;;;7.99;100.00;101879.50;5035562;28;20947;-73
2021/11/24 07:07:15;;;;;;;0.40;0.30;;;;;;;8.00;100.00;101881.13;5035876;28;20493;-73
2021/11/24 07:09:43;;;;;;;0.40;0.30;;;;;;;7.99;100.00;101877.59;5035614;28;20981;-75
2021/11/24 07:12:10;;;;;;;0.40;0.30;;;;;;;7.98;100.00;101884.06;5035831;28;20483;-75
2021/11/24 07:14:38;;;;;;;0.40;0.30;;;;;;;7.99;100.00;101883.00;5035610;28;21006;-73
2021/11/24 07:17:05;;;;;;;0.40;0.30;;;;;;;7.93;100.00;101885.91;5035752;28;20481;-74
2021/11/24 07:19:32;;;;;;;0.40;0.27;;;;;;;7.97;100.00;101881.59;5035435;28;20517;-75
2021/11/24 07:21:59;;;;;;;0.40;0.30;;;;;;;7.93;100.00;101884.00;5035686;28;20451;-73
2021/11/24 07:24:30;;;;;;;0.40;0.30;;;;;;;7.91;100.00;101885.31;5035348;28;20443;-73
2021/11/24 07:26:56;;;;;;;0.40;0.30;;;;;;;7.91;100.00;101893.41;5035596;28;20493;-72
2021/11/24 07:29:24;;;;;;;0.40;0.30;;;;;;;7.96;100.00;101891.59;5035473;28;20467;-72
2021/11/24 07:31:53;;;;;;;0.40;0.20;;;;;;;7.97;100.00;101887.84;5035483;28;20475;-72
2021/11/24 07:34:19;;;;;;;0.40;0.40;;;;;;;8.04;100.00;101887.63;5035156;28;20859;-73
2021/11/24 07:36:46;;;;;;;0.40;0.20;;;;;;;8.08;100.00;101892.28;5035101;28;20489;-74
2021/11/24 07:39:13;;;;;;;0.40;0.30;;;;;;;8.08;100.00;101888.78;5035311;28;20513;-74
2021/11/24 07:41:40;;;;;;;0.40;0.30;;;;;;;8.06;100.00;101886.34;5035105;28;20451;-72
2021/11/24 07:44:06;;;;;;;0.40;0.30;;;;;;;8.08;100.00;101888.78;5035341;28;20525;-73
2021/11/24 07:46:33;;;;;;;0.40;0.30;;;;;;;8.06;100.00;101883.63;5035321;28;20439;-72
2021/11/24 07:49:02;;;;;;;0.40;0.20;;;;;;;8.05;100.00;101878.47;5034972;28;20450;-74
2021/11/24 07:51:29;;;;;;;0.40;0.30;;;;;;;8.04;100.00;101874.16;5034995;28;20955;-76
2021/11/24 07:53:56;;;;;;;0.40;0.30;;;;;;;8.03;100.00;101886.03;5035146;28;20544;-75
2021/11/24 07:56:23;;;;;;;0.40;0.30;;;;;;;8.02;100.00;101881.69;5034953;28;20499;-72
2021/11/24 07:58:50;;;;;;;0.40;0.30;;;;;;;7.96;100.00;101882.69;5033951;28;20451;-71
2021/11/24 08:01:17;;;;;;;0.50;0.47;;;;;;;8.00;100.00;101881.94;5034255;28;20439;-71
2021/11/24 08:03:44;;;;;;;0.40;0.30;;;;;;;8.06;100.00;101877.44;5018790;28;20444;-71
2021/11/24 08:06:12;;;;;;;0.40;0.30;;;;;;;8.11;100.00;101880.19;5023313;28;20949;-70
2021/11/24 08:08:39;;;;;;;0.40;0.30;;;;;;;8.14;100.00;101868.03;5034264;28;20454;-72
2021/11/24 08:11:06;;;;;;;0.40;0.30;;;;;;;8.15;100.00;101875.91;5033740;28;20451;-72
2021/11/24 08:13:33;;;;;;;0.40;0.30;;;;;;;8.17;100.00;101871.06;5015127;28;20488;-71
2021/11/24 08:16:00;;;;;;;0.40;0.30;;;;;;;8.16;100.00;101868.63;5018494;28;20459;-71
2021/11/24 08:18:27;;;;;;;0.40;0.30;;;;;;;8.13;100.00;101863.72;5027137;28;20451;-71
2021/11/24 08:20:53;;;;;;;0.40;0.30;;;;;;;8.15;100.00;101862.41;5033490;28;20972;-72
2021/11/24 08:23:22;;;;;;;0.40;0.30;;;;;;;8.18;100.00;101858.38;5018656;28;20452;-71
2021/11/24 08:25:49;;;;;;;0.40;0.30;;;;;;;8.15;100.00;101857.03;5014787;28;20494;-72
2021/11/24 08:28:16;;;;;;;0.40;0.30;;;;;;;8.17;100.00;101857.56;5015646;28;20459;-71
2021/11/24 08:30:43;;;;;;;0.40;0.30;;;;;;;8.15;100.00;101865.13;5034356;28;20458;-71
2021/11/24 08:33:10;;;;;;;0.40;0.30;;;;;;;8.19;100.00;101860.00;5033973;28;20518;-72
2021/11/24 08:35:39;;;;;;;0.40;0.30;;;;;;;8.15;100.00;101857.03;5034083;28;20453;-69
2021/11/24 08:38:06;;;;;;;0.73;0.73;;;;;;;8.08;100.00;101862.59;5033959;28;20514;-71
2021/11/24 08:40:35;;;;;;;0.40;0.20;;;;;;;8.09;100.00;101858.00;5033964;28;20455;-70
2021/11/24 08:43:02;;;;;;;0.40;0.30;;;;;;;8.06;100.00;101863.94;5022004;28;20449;-70
2021/11/24 08:45:28;;;;;;;0.40;0.30;;;;;;;8.07;100.00;101860.97;5014069;28;20926;-70
2021/11/24 08:47:55;;;;;;;0.40;0.30;;;;;;;8.09;100.00;101864.22;5014182;28;20448;-71
2021/11/24 08:50:22;;;;;;;0.40;0.30;;;;;;;8.08;100.00;101861.78;5015317;28;20484;-71
2021/11/24 08:52:50;;;;;;;0.40;0.40;;;;;;;8.04;100.00;101861.47;5013222;28;20484;-70
2021/11/24 08:55:18;;;;;;;0.40;0.30;;;;;;;8.10;100.00;101862.34;5014260;28;20443;-70
2021/11/24 08:57:47;;;;;;;0.40;0.30;;;;;;;8.14;100.00;101854.56;5013850;28;21011;-71
2021/11/24 09:00:17;;;;;;;0.40;0.20;;;;;;;8.15;100.00;101858.91;5013857;28;20671;-71
2021/11/24 09:02:45;;;;;;;0.40;0.30;;;;;;;8.17;100.00;101868.38;5014115;28;20514;-71
2021/11/24 09:05:13;;;;;;;0.40;0.30;;;;;;;8.12;100.00;101867.50;5013728;28;20937;-70
2021/11/24 09:07:40;;;;;;;0.40;0.30;;;;;;;8.21;100.00;101865.97;5013750;28;20535;-69
2021/11/24 09:10:08;;;;;;;0.40;0.30;;;;;;;8.23;100.00;101864.63;5013970;28;20941;-70
2021/11/24 09:12:35;;;;;;;0.40;0.30;;;;;;;8.25;100.00;101856.31;5013663;28;20452;-71
2021/11/24 09:15:04;;;;;;;0.40;0.30;;;;;;;8.22;100.00;101860.31;5013445;28;20498;-71
2021/11/24 09:17:31;;;;;;;0.40;0.27;;;;;;;8.25;100.00;101859.00;5013835;28;20440;-68
2021/11/24 09:19:58;;;;;;;0.40;0.30;;;;;;;8.22;100.00;101857.63;5013605;28;20464;-69
2021/11/24 09:22:25;;;;;;;0.40;0.30;;;;;;;8.21;100.00;101858.69;5013452;28;21028;-71
2021/11/24 09:24:56;;;;;;;0.63;0.63;;;;;;;8.22;100.00;101854.91;5013709;28;20448;-73
2021/11/24 09:27:30;;;;;;;0.40;0.20;;;;;;;8.25;100.00;101854.41;5013437;28;20965;-69
2021/11/24 09:29:57;;;;;;;0.40;0.30;;;;;;;8.18;100.00;101851.09;5013596;28;20499;-69
2021/11/24 09:32:26;;;;;;;0.40;0.30;;;;;;;8.24;100.00;101849.28;5013222;28;20451;-70
2021/11/24 09:34:53;;;;;;;0.40;0.30;;;;;;;8.29;100.00;101847.44;5013241;28;20459;-69
2021/11/24 09:37:20;;;;;;;0.40;0.30;;;;;;;8.34;100.00;101857.47;5013488;28;20490;-70
2021/11/24 09:39:47;;;;;;;0.40;0.30;;;;;;;8.34;100.00;101852.09;5013429;28;20460;-71
2021/11/24 09:42:15;;;;;;;0.40;0.30;;;;;;;8.35;100.00;101851.81;5013339;28;20856;-68
2021/11/24 09:44:45;;;;;;;0.40;0.30;;;;;;;8.41;100.00;101849.19;5013348;28;20866;-72
2021/11/24 09:47:12;;;;;;;0.40;0.30;;;;;;;8.45;100.00;101845.72;5013177;28;20528;-72
2021/11/24 09:49:42;;;;;;;0.40;0.30;;;;;;;8.49;100.00;101840.63;5013170;28;20480;-70
2021/11/24 09:52:10;;;;;;;0.40;0.30;;;;;;;8.53;100.00;101842.56;5013622;28;20844;-68
2021/11/24 09:54:37;;;;;;;0.40;0.30;;;;;;;8.54;100.00;101830.72;5012955;28;20488;-69
2021/11/24 09:57:04;;;;;;;0.40;0.30;;;;;;;8.51;100.00;101831.22;5013138;28;20444;-68
2021/11/24 09:59:30;;;;;;;0.40;0.30;;;;;;;8.53;100.00;101818.25;5026875;28;20552;-68
2021/11/24 10:01:58;;;;;;;0.40;0.30;;;;;;;8.51;100.00;101825.00;5032877;28;21087;-68
2021/11/24 10:04:25;;;;;;;0.40;0.30;;;;;;;8.52;100.00;101827.44;5034998;28;20458;-69
2021/11/24 10:06:53;;;;;;;0.40;0.30;;;;;;;8.55;100.00;101829.63;5037591;28;20459;-68
2021/11/24 10:09:20;;;;;;;0.40;0.30;;;;;;;8.57;100.00;101819.38;5036989;28;20981;-70
2021/11/24 10:11:47;;;;;;;0.40;0.30;;;;;;;8.58;100.00;101823.72;5037062;28;20521;-70
2021/11/24 10:14:14;;;;;;;0.40;0.30;;;;;;;8.60;100.00;101823.47;5036315;28;20478;-70
2021/11/24 10:16:40;;;;;;;0.40;0.30;;;;;;;8.58;100.00;101814.78;5037295;28;20512;-68
2021/11/24 10:19:11;;;;;;;0.40;0.20;;;;;;;8.63;100.00;101814.84;5037332;28;20475;-70
2021/11/24 10:21:56;;;;;;;0.40;0.30;;;;;;;8.60;100.00;101812.66;5037244;28;20436;-69
2021/11/24 10:24:31;;;;;;;0.40;0.30;;;;;;;8.61;100.00;101811.59;5037064;28;20506;-70
2021/11/24 10:26:58;;;;;;;0.40;0.30;;;;;;;8.60;100.00;101809.97;5037290;28;20555;-71
2021/11/24 10:29:25;;;;;;;0.40;0.30;;;;;;;8.63;100.00;101808.63;5036908;28;20483;-70
2021/11/24 10:31:54;;;;;;;0.40;0.30;;;;;;;8.64;100.00;101800.28;5036515;28;20937;-70
2021/11/24 10:34:23;;;;;;;0.40;0.30;;;;;;;8.73;100.00;101795.22;5036753;28;20533;-69
2021/11/24 10:37:00;;;;;;;0.40;0.30;;;;;;;8.82;100.00;101791.78;5036580;28;20455;-70
2021/11/24 10:39:29;;;;;;;1.07;0.97;;;;;;;8.88;100.00;101787.22;5036769;28;20477;-68
2021/11/24 10:42:07;;;;;;;0.40;0.30;;;;;;;8.86;100.00;101778.56;5036819;28;20434;-69
2021/11/24 10:44:34;;;;;;;0.40;0.30;;;;;;;8.91;100.00;101773.19;5036345;28;20477;-69
2021/11/24 10:47:02;;;;;;;0.40;0.30;;;;;;;8.86;100.00;101780.47;5036468;28;20458;-70
2021/11/24 10:49:39;;;;;;;0.50;0.30;;;;;;;8.82;100.00;101778.25;5035539;28;20540;-69
2021/11/24 10:52:30;;;;;;;0.40;0.30;;;;;;;8.74;100.00;101777.94;5036097;28;20458;-66
2021/11/24 10:55:04;;;;;;;0.40;0.30;;;;;;;8.73;100.00;101773.59;5012285;28;20487;-71
2021/11/24 10:57:32;;;;;;;0.40;0.30;;;;;;;8.73;100.00;101766.31;5016392;28;20420;-71
2021/11/24 11:00:03;;;;;;;0.40;0.30;;;;;;;8.68;100.00;101773.56;5015990;28;20887;-68
2021/11/24 11:02:33;;;;;;;0.40;0.30;;;;;;;8.67;100.00;101770.03;5022902;28;20880;-69
2021/11/24 11:05:12;;;;;;;0.40;0.20;;;;;;;8.75;100.00;101771.44;5035815;28;20901;-68
2021/11/24 11:07:43;;;;;;;0.40;0.30;;;;;;;8.76;100.00;101757.66;5035794;28;20427;-68
2021/11/24 11:10:14;;;;;;;0.40;0.30;;;;;;;8.79;100.00;101759.06;5035286;28;20597;-69
2021/11/24 11:12:43;;;;;;;0.40;0.30;;;;;;;8.78;100.00;101755.53;5035991;28;20435;-69
2021/11/24 11:15:16;;;;;;;0.40;0.30;;;;;;;8.77;100.00;101755.81;5034929;28;20486;-70
2021/11/24 11:17:52;;;;;;;0.40;0.30;;;;;;;8.66;100.00;101752.22;5035533;28;20522;-69
2021/11/24 11:20:19;;;;;;;0.50;0.30;;;;;;;8.65;100.00;101747.06;5035349;28;21026;-70
2021/11/24 11:22:53;;;;;;;0.40;0.30;;;;;;;8.64;100.00;101748.16;5035780;28;20497;-67
2021/11/24 11:25:20;;;;;;;0.40;0.30;;;;;;;8.63;100.00;101747.31;5035149;28;20975;-70
2021/11/24 11:27:47;;;;;;;0.40;0.23;;;;;;;8.67;100.00;101745.72;5035264;28;20924;-68
2021/11/24 11:30:14;;;;;;;0.40;0.30;;;;;;;8.73;100.00;101742.00;5035398;28;20462;-69